createdAt,value
2018-08-18T00:00:15.567Z,6.50
2018-08-18T00:02:44.101Z,5.73
2018-08-18T00:05:13.521Z,7.50
2018-08-18T00:07:42.007Z,9.67
2018-08-18T00:10:11.673Z,8.90
2018-08-18T00:12:40.168Z,6.83
2018-08-18T00:15:09.773Z,8.80
2018-08-18T00:17:38.874Z,7.10
2018-08-18T00:20:10.045Z,6.90
2018-08-18T00:22:38.539Z,5.47
2018-08-18T00:25:07.362Z,5.67
2018-08-18T00:27:35.827Z,7.97
2018-08-18T00:30:10.235Z,6.20
2018-08-18T00:32:38.757Z,13.93
2018-08-18T00:35:08.144Z,12.00
2018-08-18T00:37:36.853Z,6.93
2018-08-18T00:40:06.830Z,12.20
2018-08-18T00:42:35.332Z,9.30
2018-08-18T00:45:03.970Z,13.53
2018-08-18T00:47:32.548Z,9.80
2018-08-18T00:50:01.065Z,7.17
2018-08-18T00:52:29.632Z,7.60
2018-08-18T00:54:58.116Z,8.97
2018-08-18T00:57:28.936Z,9.37
2018-08-18T00:59:57.553Z,6.67
2018-08-18T01:02:26.629Z,8.53
2018-08-18T01:05:02.122Z,6.93
2018-08-18T01:07:31.688Z,7.63
2018-08-18T01:10:00.577Z,6.40
2018-08-18T01:12:29.393Z,8.47
2018-08-18T01:14:58.384Z,7.10
2018-08-18T01:17:26.920Z,7.60
2018-08-18T01:19:57.065Z,11.33
2018-08-18T01:22:25.561Z,6.37
2018-08-18T01:24:54.474Z,10.63
2018-08-18T01:27:23.093Z,10.83
2018-08-18T01:30:06.823Z,11.47
2018-08-18T01:32:35.352Z,8.63
2018-08-18T01:35:03.881Z,9.83
2018-08-18T01:37:33.007Z,12.10
2018-08-18T01:40:01.747Z,16.13
2018-08-18T01:42:32.541Z,12.03
2018-08-18T01:45:01.048Z,9.20
2018-08-18T01:47:29.620Z,9.30
2018-08-18T01:49:59.621Z,14.00
2018-08-18T01:52:28.130Z,13.33
2018-08-18T01:54:56.585Z,10.17
2018-08-18T01:57:25.070Z,13.53
2018-08-18T01:59:53.520Z,10.47
2018-08-18T02:02:24.879Z,14.00
2018-08-18T02:04:53.697Z,15.33
2018-08-18T02:07:27.564Z,13.90
2018-08-18T02:09:56.532Z,14.23
2018-08-18T02:12:25.544Z,15.20
2018-08-18T02:14:54.410Z,11.33
2018-08-18T02:17:36.873Z,17.77
2018-08-18T02:20:08.831Z,17.60
2018-08-18T02:22:37.302Z,14.13
2018-08-18T02:25:06.398Z,16.90
2018-08-18T02:27:34.950Z,13.67
2018-08-18T02:30:23.713Z,23.63
2018-08-18T02:32:52.214Z,15.57
2018-08-18T02:35:22.170Z,15.80
2018-08-18T02:37:50.675Z,16.97
2018-08-18T02:40:19.315Z,17.13
2018-08-18T02:42:47.761Z,17.00
2018-08-18T02:45:16.856Z,19.10
2018-08-18T02:47:45.352Z,18.30
2018-08-18T02:50:14.557Z,15.77
2018-08-18T02:52:43.050Z,20.20
2018-08-18T02:55:12.166Z,17.57
2018-08-18T02:57:44.669Z,18.33
2018-08-18T03:00:19.663Z,16.40
2018-08-18T03:02:48.362Z,23.73
2018-08-18T03:05:16.893Z,26.93
2018-08-18T03:07:49.240Z,21.60
2018-08-18T03:10:24.569Z,18.60
2018-08-18T03:12:56.393Z,20.70
2018-08-18T03:16:04.962Z,24.43
2018-08-18T03:18:55.200Z,23.60
2018-08-18T03:21:29.960Z,22.87
2018-08-18T03:24:09.549Z,26.43
2018-08-18T03:26:45.423Z,19.63
2018-08-18T03:29:14.892Z,23.10
2018-08-18T03:31:43.766Z,21.40
2018-08-18T03:34:12.801Z,22.33
2018-08-18T03:36:43.977Z,21.97
2018-08-18T03:39:20.197Z,21.20
2018-08-18T03:41:48.971Z,21.33
2018-08-18T03:44:17.489Z,24.10
2018-08-18T03:46:46.118Z,21.40
2018-08-18T03:49:14.651Z,19.20
2018-08-18T03:51:46.192Z,22.00
2018-08-18T03:54:14.827Z,26.60
2018-08-18T03:56:43.535Z,22.47
2018-08-18T03:59:12.059Z,23.30
2018-08-18T04:01:52.429Z,23.43
2018-08-18T04:04:21.980Z,21.57
2018-08-18T04:06:51.686Z,25.10
2018-08-18T04:09:21.346Z,21.07
2018-08-18T04:11:49.949Z,21.97
2018-08-18T04:14:21.529Z,27.20
2018-08-18T04:16:51.125Z,19.50
2018-08-18T04:19:20.668Z,18.83
2018-08-18T04:21:50.626Z,21.70
2018-08-18T04:24:19.101Z,32.87
2018-08-18T04:26:48.221Z,30.17
2018-08-18T04:29:16.750Z,22.97
2018-08-18T04:31:45.197Z,23.27
2018-08-18T04:34:13.689Z,26.50
2018-08-18T04:36:42.165Z,24.30
2018-08-18T04:39:12.784Z,27.20
2018-08-18T04:41:41.906Z,21.07
2018-08-18T04:44:10.425Z,20.50
2018-08-18T04:46:38.931Z,26.90
2018-08-18T04:49:07.454Z,21.50
2018-08-18T04:51:36.092Z,22.80
2018-08-18T04:54:04.940Z,25.60
2018-08-18T04:56:33.541Z,21.40
2018-08-18T04:59:02.062Z,21.30
2018-08-18T05:01:30.557Z,25.03
2018-08-18T05:04:03.145Z,28.93
2018-08-18T05:06:32.510Z,18.87
2018-08-18T05:09:02.332Z,21.80
2018-08-18T05:11:31.005Z,24.17
2018-08-18T05:13:59.577Z,19.67
2018-08-18T05:16:28.225Z,21.70
2018-08-18T05:18:56.746Z,27.17
2018-08-18T05:21:25.498Z,25.00
2018-08-18T05:23:54.244Z,24.73
2018-08-18T05:26:22.888Z,20.93
2018-08-18T05:28:51.397Z,21.27
2018-08-18T05:31:21.223Z,20.63
2018-08-18T05:33:49.984Z,13.50
2018-08-18T05:36:18.530Z,17.97
2018-08-18T05:38:47.007Z,21.00
2018-08-18T05:41:15.509Z,16.73
2018-08-18T05:43:44.029Z,16.60
2018-08-18T05:46:12.519Z,16.10
2018-08-18T05:48:41.012Z,18.93
2018-08-18T05:51:09.510Z,11.67
2018-08-18T05:53:38.018Z,23.70
2018-08-18T05:56:06.533Z,13.73
2018-08-18T05:58:50.159Z,13.07
2018-08-18T06:01:27.482Z,11.17
2018-08-18T06:04:04.132Z,9.60
2018-08-18T06:06:32.829Z,11.30
2018-08-18T06:09:01.353Z,13.17
2018-08-18T06:11:29.875Z,8.00
2018-08-18T06:13:58.425Z,8.57
2018-08-18T06:16:26.910Z,8.40
2018-08-18T06:18:55.470Z,10.50
2018-08-18T06:21:24.029Z,10.80
2018-08-18T06:23:52.577Z,10.03
2018-08-18T06:26:21.044Z,9.10
2018-08-18T06:28:49.601Z,11.00
2018-08-18T06:31:18.080Z,10.53
2018-08-18T06:33:46.721Z,18.37
2018-08-18T06:36:15.274Z,8.70
2018-08-18T06:38:43.761Z,10.93
2018-08-18T06:41:12.407Z,10.63
2018-08-18T06:43:40.810Z,9.30
2018-08-18T06:46:09.382Z,14.80
2018-08-18T06:48:38.521Z,6.87
2018-08-18T06:51:07.591Z,7.10
2018-08-18T06:53:41.336Z,13.37
2018-08-18T06:56:10.079Z,6.57
2018-08-18T06:58:38.609Z,8.97
2018-08-18T07:01:07.663Z,9.43
2018-08-18T07:03:38.113Z,11.03
2018-08-18T07:06:07.251Z,9.53
2018-08-18T07:08:41.076Z,8.00
2018-08-18T07:11:10.218Z,10.60
2018-08-18T07:13:38.829Z,12.70
2018-08-18T07:16:07.604Z,10.17
2018-08-18T07:18:36.179Z,17.27
2018-08-18T07:21:04.748Z,15.67
2018-08-18T07:23:33.248Z,12.27
2018-08-18T07:26:02.596Z,10.40
2018-08-18T07:28:31.097Z,12.27
2018-08-18T07:30:59.680Z,11.70
2018-08-18T07:33:28.166Z,10.07
2018-08-18T07:35:56.706Z,12.03
2018-08-18T07:38:25.207Z,15.00
2018-08-18T07:40:54.667Z,10.13
2018-08-18T07:43:25.269Z,12.60
2018-08-18T07:45:54.922Z,13.20
2018-08-18T07:48:23.414Z,8.63
2018-08-18T07:50:51.961Z,8.43
2018-08-18T07:53:20.542Z,18.03
2018-08-18T07:55:49.067Z,16.50
2018-08-18T07:58:19.541Z,15.07
2018-08-18T08:00:48.238Z,7.43
2018-08-18T08:03:17.505Z,6.80
2018-08-18T08:05:46.068Z,15.53
2018-08-18T08:08:14.591Z,13.40
2018-08-18T08:10:43.210Z,6.70
2018-08-18T08:13:12.951Z,6.17
2018-08-18T08:15:41.700Z,8.17
2018-08-18T08:18:12.276Z,8.10
2018-08-18T08:20:40.777Z,11.57
2018-08-18T08:23:09.289Z,12.13
2018-08-18T08:25:37.882Z,7.80
2018-08-18T08:28:06.445Z,5.43
2018-08-18T08:30:34.934Z,5.80
2018-08-18T08:33:03.476Z,4.40
2018-08-18T08:35:32.050Z,10.23
2018-08-18T08:38:00.647Z,6.50
2018-08-18T08:40:29.619Z,7.80
2018-08-18T08:42:58.201Z,4.63
2018-08-18T08:45:26.721Z,6.07
2018-08-18T08:47:56.072Z,8.37
2018-08-18T08:50:25.164Z,8.00
2018-08-18T08:52:56.474Z,4.10
2018-08-18T08:55:26.249Z,7.63
2018-08-18T08:57:54.766Z,4.77
2018-08-18T09:00:23.389Z,5.90
2018-08-18T09:02:51.918Z,7.73
2018-08-18T09:05:20.804Z,5.60
2018-08-18T09:07:49.328Z,7.70
2018-08-18T09:10:18.322Z,7.47
2018-08-18T09:12:46.862Z,7.20
2018-08-18T09:15:16.505Z,8.83
2018-08-18T09:17:45.102Z,12.83
2018-08-18T09:20:16.279Z,6.63
2018-08-18T09:22:56.052Z,10.23
2018-08-18T09:25:26.081Z,5.90
2018-08-18T09:27:55.793Z,3.60
2018-08-18T09:30:25.767Z,4.90
2018-08-18T09:32:54.400Z,2.83
2018-08-18T09:35:23.061Z,4.30
2018-08-18T09:37:56.809Z,2.27
2018-08-18T09:40:25.375Z,4.80
2018-08-18T09:42:53.833Z,4.00
2018-08-18T09:45:22.413Z,10.10
2018-08-18T09:47:50.901Z,8.37
2018-08-18T09:50:19.409Z,5.00
2018-08-18T09:52:47.960Z,3.23
2018-08-18T09:55:16.501Z,7.03
2018-08-18T09:57:44.994Z,5.20
2018-08-18T10:00:14.940Z,3.40
2018-08-18T10:02:43.635Z,4.00
2018-08-18T10:05:12.246Z,3.50
2018-08-18T10:07:40.766Z,3.90
2018-08-18T10:10:11.194Z,6.03
2018-08-18T10:12:39.852Z,4.03
2018-08-18T10:15:08.525Z,7.80
2018-08-18T10:17:37.105Z,7.63
2018-08-18T10:20:06.510Z,4.27
2018-08-18T10:22:35.009Z,4.53
2018-08-18T10:25:04.061Z,7.77
2018-08-18T10:27:32.576Z,7.03
2018-08-18T10:30:01.067Z,10.30
2018-08-18T10:32:29.610Z,8.53
2018-08-18T10:34:58.089Z,6.30
2018-08-18T10:37:26.585Z,5.80
2018-08-18T10:40:02.269Z,7.93
2018-08-18T10:42:32.109Z,8.50
2018-08-18T10:45:01.164Z,7.13
2018-08-18T10:47:30.073Z,10.17
2018-08-18T10:50:09.707Z,7.63
2018-08-18T10:52:49.352Z,7.00
2018-08-18T10:55:18.590Z,14.27
2018-08-18T10:58:08.537Z,6.57
2018-08-18T11:00:37.540Z,6.60
2018-08-18T11:03:07.156Z,8.13
2018-08-18T11:05:35.689Z,9.93
2018-08-18T11:08:06.157Z,7.43
2018-08-18T11:10:36.798Z,7.03
2018-08-18T11:13:05.402Z,5.87
2018-08-18T11:15:34.486Z,7.77
2018-08-18T11:18:03.314Z,3.53
2018-08-18T11:20:33.900Z,5.63
2018-08-18T11:23:17.784Z,10.50
2018-08-18T11:25:54.327Z,3.67
2018-08-18T11:28:23.826Z,5.10
2018-08-18T11:30:53.492Z,10.53
2018-08-18T11:33:36.109Z,6.77
2018-08-18T11:36:06.212Z,6.67
2018-08-18T11:38:35.299Z,5.60
2018-08-18T11:41:04.305Z,7.20
2018-08-18T11:43:41.061Z,9.73
2018-08-18T11:46:10.169Z,9.33
2018-08-18T11:48:39.125Z,6.73
2018-08-18T11:51:08.375Z,5.07
2018-08-18T11:53:47.110Z,8.53
2018-08-18T11:56:16.738Z,4.83
2018-08-18T11:58:50.489Z,10.00
2018-08-18T12:01:23.486Z,8.47
2018-08-18T12:03:52.702Z,9.50
2018-08-18T12:06:21.862Z,7.70
2018-08-18T12:08:50.879Z,6.93
2018-08-18T12:11:20.153Z,12.13
2018-08-18T12:13:49.308Z,7.20
2018-08-18T12:16:19.471Z,4.90
2018-08-18T12:18:49.221Z,9.30
2018-08-18T12:21:18.376Z,6.47
2018-08-18T12:23:48.820Z,8.67
2018-08-18T12:26:21.768Z,8.17
2018-08-18T12:28:53.396Z,10.03
2018-08-18T12:31:28.834Z,8.40
2018-08-18T12:33:57.642Z,5.43
2018-08-18T12:36:26.803Z,7.90
2018-08-18T12:38:57.905Z,8.73
2018-08-18T12:41:26.982Z,9.57
2018-08-18T12:43:57.883Z,5.40
2018-08-18T12:46:35.951Z,4.07
2018-08-18T12:49:06.499Z,6.30
2018-08-18T12:51:35.434Z,5.63
2018-08-18T12:54:04.603Z,8.37
2018-08-18T12:56:34.184Z,11.90
2018-08-18T12:59:03.201Z,16.03
2018-08-18T13:01:45.910Z,5.63
2018-08-18T13:04:17.287Z,5.37
2018-08-18T13:06:48.880Z,7.27
2018-08-18T13:09:19.553Z,9.03
2018-08-18T13:11:49.742Z,9.37
2018-08-18T13:14:20.997Z,9.57
2018-08-18T13:16:50.465Z,5.80
2018-08-18T13:19:21.547Z,22.20
2018-08-18T13:21:50.701Z,14.43
2018-08-18T13:24:19.702Z,11.10
2018-08-18T13:26:48.738Z,6.70
2018-08-18T13:29:17.912Z,8.40
2018-08-18T13:31:46.538Z,6.73
2018-08-18T13:34:16.421Z,8.27
2018-08-18T13:36:45.824Z,4.73
2018-08-18T13:39:15.701Z,8.53
2018-08-18T13:41:45.041Z,9.83
2018-08-18T13:44:18.437Z,10.77
2018-08-18T13:46:49.556Z,11.13
2018-08-18T13:49:21.703Z,5.80
2018-08-18T13:51:50.318Z,9.37
2018-08-18T13:54:18.900Z,13.13
2018-08-18T13:56:47.498Z,11.40
2018-08-18T13:59:27.202Z,9.03
2018-08-18T14:01:55.698Z,6.03
2018-08-18T14:04:29.434Z,9.13
2018-08-18T14:06:57.824Z,9.53
2018-08-18T14:09:26.345Z,11.13
2018-08-18T14:12:00.673Z,20.63
2018-08-18T14:14:29.174Z,17.50
2018-08-18T14:16:57.684Z,8.83
2018-08-18T14:19:26.141Z,7.10
2018-08-18T14:21:59.754Z,5.97
2018-08-18T14:24:35.034Z,12.70
2018-08-18T14:27:04.569Z,15.13
2018-08-18T14:29:33.977Z,8.10
2018-08-18T14:32:03.053Z,9.37
2018-08-18T14:34:31.553Z,7.67
2018-08-18T14:37:05.331Z,13.70
2018-08-18T14:39:37.789Z,11.50
2018-08-18T14:42:06.905Z,10.83
2018-08-18T14:44:35.859Z,11.53
2018-08-18T14:47:04.498Z,11.50
2018-08-18T14:49:33.133Z,8.03
2018-08-18T14:52:01.684Z,6.53
2018-08-18T14:54:31.264Z,8.57
2018-08-18T14:57:01.537Z,10.87
2018-08-18T14:59:34.199Z,10.90
2018-08-18T15:02:04.433Z,13.83
2018-08-18T15:04:33.485Z,13.33
2018-08-18T15:07:01.957Z,10.47
2018-08-18T15:09:41.793Z,9.00
2018-08-18T15:12:10.243Z,11.57
2018-08-18T15:14:38.755Z,12.63
2018-08-18T15:17:07.233Z,9.03
2018-08-18T15:19:35.722Z,13.50
2018-08-18T15:22:07.001Z,15.00
2018-08-18T15:24:35.569Z,18.67
2018-08-18T15:27:04.146Z,11.83
2018-08-18T15:29:32.751Z,8.97
2018-08-18T15:32:01.333Z,16.50
2018-08-18T15:34:29.935Z,10.93
2018-08-18T15:36:58.463Z,11.40
2018-08-18T15:39:28.562Z,10.57
2018-08-18T15:41:58.810Z,9.40
2018-08-18T15:44:27.293Z,13.40
2018-08-18T15:46:55.793Z,11.97
2018-08-18T15:49:24.308Z,11.60
2018-08-18T15:51:52.869Z,13.50
2018-08-18T15:54:23.796Z,15.73
2018-08-18T15:56:52.289Z,12.37
2018-08-18T15:59:20.797Z,10.90
2018-08-18T16:01:49.281Z,11.30
2018-08-18T16:04:17.794Z,11.00
2018-08-18T16:06:46.335Z,13.53
2018-08-18T16:09:14.838Z,8.00
2018-08-18T16:11:43.364Z,12.10
2018-08-18T16:14:11.828Z,11.27
2018-08-18T16:16:55.660Z,16.23
2018-08-18T16:19:24.593Z,14.43
2018-08-18T16:21:53.119Z,9.80
2018-08-18T16:24:38.909Z,7.67
2018-08-18T16:27:07.801Z,10.00
2018-08-18T16:29:36.778Z,13.70
2018-08-18T16:32:24.962Z,11.30
2018-08-18T16:35:00.343Z,8.50
2018-08-18T16:37:29.058Z,6.27
2018-08-18T16:39:56.688Z,9.00
2018-08-18T16:42:25.201Z,10.93
2018-08-18T16:44:53.657Z,13.53
2018-08-18T16:47:22.172Z,8.73
2018-08-18T16:49:50.710Z,9.77
2018-08-18T16:52:19.233Z,10.03
2018-08-18T16:54:47.731Z,12.63
2018-08-18T16:57:16.249Z,16.93
2018-08-18T16:59:44.781Z,19.47
2018-08-18T17:02:28.561Z,15.73
2018-08-18T17:04:57.082Z,13.17
2018-08-18T17:07:26.670Z,13.87
2018-08-18T17:09:55.398Z,13.30
2018-08-18T17:12:27.405Z,12.10
2018-08-18T17:14:55.918Z,11.73
2018-08-18T17:17:25.170Z,12.67
2018-08-18T17:19:53.714Z,9.60
2018-08-18T17:22:22.325Z,10.63
2018-08-18T17:24:50.867Z,10.70
2018-08-18T17:27:19.425Z,14.97
2018-08-18T17:29:49.713Z,17.70
2018-08-18T17:32:18.202Z,12.43
2018-08-18T17:34:46.724Z,11.73
2018-08-18T17:37:15.232Z,23.90
2018-08-18T17:39:43.759Z,10.53
2018-08-18T17:42:12.445Z,14.27
2018-08-18T17:44:41.196Z,17.40
2018-08-18T17:47:11.017Z,14.87
2018-08-18T17:49:45.959Z,15.57
2018-08-18T17:52:14.519Z,15.27
2018-08-18T17:54:44.464Z,15.17
2018-08-18T17:57:13.008Z,17.77
2018-08-18T17:59:41.628Z,13.30
2018-08-18T18:02:12.545Z,12.20
2018-08-18T18:04:41.034Z,19.07
2018-08-18T18:07:10.575Z,13.37
2018-08-18T18:09:39.156Z,17.27
2018-08-18T18:12:30.355Z,15.80
2018-08-18T18:14:58.945Z,15.10
2018-08-18T18:17:27.971Z,15.00
2018-08-18T18:19:59.504Z,18.10
2018-08-18T18:22:40.338Z,14.63
2018-08-18T18:25:08.928Z,20.10
2018-08-18T18:27:37.426Z,16.07
2018-08-18T18:30:06.036Z,29.97
2018-08-18T18:32:34.533Z,16.17
2018-08-18T18:35:03.268Z,15.60
2018-08-18T18:37:31.773Z,15.23
2018-08-18T18:40:02.403Z,13.93
2018-08-18T18:42:30.950Z,14.63
2018-08-18T18:44:59.893Z,15.77
2018-08-18T18:47:29.144Z,13.73
2018-08-18T18:49:57.642Z,13.73
2018-08-18T18:52:26.310Z,13.53
2018-08-18T18:54:57.512Z,14.30
2018-08-18T18:57:26.152Z,18.00
2018-08-18T19:00:01.058Z,22.33
2018-08-18T19:02:39.554Z,13.17
2018-08-18T19:05:16.670Z,21.03
2018-08-18T19:07:45.457Z,17.50
2018-08-18T19:10:13.962Z,19.90
2018-08-18T19:12:42.509Z,22.43
2018-08-18T19:15:11.039Z,19.30
2018-08-18T19:17:39.564Z,19.80
2018-08-18T19:20:40.722Z,18.50
2018-08-18T19:23:14.565Z,16.57
2018-08-18T19:25:44.113Z,18.17
2018-08-18T19:28:14.076Z,24.23
2018-08-18T19:30:42.669Z,19.93
2018-08-18T19:33:12.295Z,18.70
2018-08-18T19:35:42.236Z,16.53
2018-08-18T19:38:10.959Z,18.13
2018-08-18T19:40:41.002Z,21.77
2018-08-18T19:43:14.711Z,19.90
2018-08-18T19:45:43.408Z,18.00
2018-08-18T19:48:13.177Z,18.97
2018-08-18T19:50:51.256Z,21.13
2018-08-18T19:53:22.657Z,21.10
2018-08-18T19:55:51.597Z,19.30
2018-08-18T19:58:20.211Z,21.93
2018-08-18T20:00:48.799Z,18.97
2018-08-18T20:03:18.272Z,15.43
2018-08-18T20:05:47.081Z,21.97
2018-08-18T20:08:16.685Z,18.33
2018-08-18T20:10:50.481Z,22.37
2018-08-18T20:13:19.820Z,23.23
2018-08-18T20:15:49.581Z,21.47
2018-08-18T20:18:18.688Z,20.63
2018-08-18T20:20:47.410Z,25.13
2018-08-18T20:23:17.138Z,26.93
2018-08-18T20:25:46.073Z,20.00
2018-08-18T20:28:14.857Z,21.17
2018-08-18T20:30:43.604Z,19.23
2018-08-18T20:33:12.129Z,24.00
2018-08-18T20:35:40.629Z,22.37
2018-08-18T20:38:09.267Z,20.27
2018-08-18T20:40:38.060Z,28.90
2018-08-18T20:43:06.528Z,20.27
2018-08-18T20:45:50.449Z,18.53
2018-08-18T20:48:21.235Z,21.40
2018-08-18T20:50:50.134Z,25.33
2018-08-18T20:53:19.337Z,21.13
2018-08-18T20:55:57.282Z,21.27
2018-08-18T20:58:26.276Z,24.17
2018-08-18T21:00:54.890Z,25.73
2018-08-18T21:03:34.631Z,21.23
2018-08-18T21:06:03.525Z,29.43
2018-08-18T21:08:32.046Z,23.73
2018-08-18T21:11:00.692Z,20.73
2018-08-18T21:13:29.389Z,21.23
2018-08-18T21:15:58.173Z,23.20
2018-08-18T21:18:26.819Z,27.03
2018-08-18T21:20:55.313Z,20.90
2018-08-18T21:23:25.026Z,24.57
2018-08-18T21:25:54.160Z,22.03
2018-08-18T21:28:24.942Z,31.70
2018-08-18T21:30:53.496Z,35.03
2018-08-18T21:33:24.997Z,22.10
2018-08-18T21:35:54.081Z,24.97
2018-08-18T21:38:22.565Z,28.93
2018-08-18T21:40:51.094Z,25.57
2018-08-18T21:43:30.781Z,25.13
2018-08-18T21:45:59.304Z,29.10
2018-08-18T21:48:39.237Z,29.80
2018-08-18T21:51:07.799Z,23.83
2018-08-18T21:53:36.297Z,31.10
2018-08-18T21:56:04.813Z,26.97
2018-08-18T21:58:33.270Z,25.80
2018-08-18T22:01:08.097Z,30.97
2018-08-18T22:03:36.657Z,29.23
2018-08-18T22:06:05.418Z,32.70
2018-08-18T22:08:33.896Z,32.73
2018-08-18T22:11:02.425Z,30.83
2018-08-18T22:13:40.830Z,29.43
2018-08-18T22:16:09.854Z,34.73
2018-08-18T22:18:38.445Z,28.93
2018-08-18T22:21:12.401Z,31.87
2018-08-18T22:23:40.893Z,34.17
2018-08-18T22:26:13.524Z,35.63
2018-08-18T22:28:42.009Z,33.93
2018-08-18T22:31:10.491Z,29.80
2018-08-18T22:33:41.398Z,26.57
2018-08-18T22:36:09.890Z,26.73
2018-08-18T22:38:38.675Z,29.10
2018-08-18T22:41:07.442Z,28.77
2018-08-18T22:43:36.462Z,28.40
2018-08-18T22:46:05.005Z,27.60
2018-08-18T22:48:33.561Z,26.07
2018-08-18T22:51:02.045Z,30.00
2018-08-18T22:53:30.550Z,27.30
2018-08-18T22:55:59.299Z,35.70
2018-08-18T22:58:27.782Z,29.57
2018-08-18T23:00:56.703Z,45.13
2018-08-18T23:03:25.275Z,34.33
2018-08-18T23:05:53.838Z,35.43
2018-08-18T23:08:22.418Z,42.17
2018-08-18T23:10:50.946Z,33.60
2018-08-18T23:13:19.457Z,34.10
2018-08-18T23:15:48.020Z,37.07
2018-08-18T23:18:16.574Z,31.10
2018-08-18T23:20:45.082Z,37.83
2018-08-18T23:23:13.568Z,29.30
2018-08-18T23:25:42.057Z,43.23
2018-08-18T23:28:10.576Z,29.60
2018-08-18T23:30:40.049Z,32.03
2018-08-18T23:33:10.479Z,29.80
2018-08-18T23:35:38.963Z,30.37
2018-08-18T23:38:07.486Z,31.53
2018-08-18T23:40:35.990Z,31.90
2018-08-18T23:43:04.461Z,35.63
2018-08-18T23:45:38.929Z,31.13
2018-08-18T23:48:09.694Z,36.13
2018-08-18T23:50:39.006Z,40.73
2018-08-18T23:53:10.700Z,33.87
2018-08-18T23:55:44.921Z,36.57
2018-08-18T23:58:13.823Z,33.53
